sensor_id;sensor_type;location;lat;lon;timestamp;temperature;humidity
30290;DHT22;17105;55.652;37.710;2022-11-12T00:00:51;11.70;97.60
30290;DHT22;17105;55.652;37.710;2022-11-12T00:01:44;11.70;97.60
30290;DHT22;17105;55.652;37.710;2022-11-12T00:02:37;11.70;97.60
30290;DHT22;17105;55.652;37.710;2022-11-12T00:03:30;11.70;97.60
30290;DHT22;17105;55.652;37.710;2022-11-12T00:04:21;11.70;97.50
30290;DHT22;17105;55.652;37.710;2022-11-12T00:05:15;11.70;97.50
30290;DHT22;17105;55.652;37.710;2022-11-12T00:06:08;11.70;97.60
30290;DHT22;17105;55.652;37.710;2022-11-12T00:07:03;11.70;97.50
30290;DHT22;17105;55.652;37.710;2022-11-12T00:07:55;11.70;97.50
30290;DHT22;17105;55.652;37.710;2022-11-12T00:08:47;11.70;97.50
30290;DHT22;17105;55.652;37.710;2022-11-12T00:09:40;11.70;97.50
30290;DHT22;17105;55.652;37.710;2022-11-12T00:10:32;11.80;97.50
30290;DHT22;17105;55.652;37.710;2022-11-12T00:11:25;11.80;97.50
30290;DHT22;17105;55.652;37.710;2022-11-12T00:12:17;11.70;97.50
30290;DHT22;17105;55.652;37.710;2022-11-12T00:13:10;11.70;97.50
30290;DHT22;17105;55.652;37.710;2022-11-12T00:14:02;11.70;97.50
30290;DHT22;17105;55.652;37.710;2022-11-12T00:14:55;11.70;97.50
30290;DHT22;17105;55.652;37.710;2022-11-12T00:15:49;11.70;97.60
30290;DHT22;17105;55.652;37.710;2022-11-12T00:16:42;11.70;97.70
30290;DHT22;17105;55.652;37.710;2022-11-12T00:17:35;11.70;97.80
30290;DHT22;17105;55.652;37.710;2022-11-12T00:18:28;11.70;97.80
30290;DHT22;17105;55.652;37.710;2022-11-12T00:19:20;11.70;97.90
30290;DHT22;17105;55.652;37.710;2022-11-12T00:20:12;11.70;97.90
30290;DHT22;17105;55.652;37.710;2022-11-12T00:21:05;11.70;97.90
30290;DHT22;17105;55.652;37.710;2022-11-12T00:21:57;11.70;98.00
30290;DHT22;17105;55.652;37.710;2022-11-12T00:22:53;11.70;98.00
30290;DHT22;17105;55.652;37.710;2022-11-12T00:23:44;11.70;98.10
30290;DHT22;17105;55.652;37.710;2022-11-12T00:24:38;11.70;98.10
30290;DHT22;17105;55.652;37.710;2022-11-12T00:25:31;11.70;98.10
30290;DHT22;17105;55.652;37.710;2022-11-12T00:26:23;11.70;98.10
30290;DHT22;17105;55.652;37.710;2022-11-12T00:27:16;11.70;98.20
30290;DHT22;17105;55.652;37.710;2022-11-12T00:28:09;11.70;98.20
30290;DHT22;17105;55.652;37.710;2022-11-12T00:29:01;11.70;98.20
30290;DHT22;17105;55.652;37.710;2022-11-12T00:29:54;11.70;98.20
30290;DHT22;17105;55.652;37.710;2022-11-12T00:30:46;11.70;98.30
30290;DHT22;17105;55.652;37.710;2022-11-12T00:31:39;11.70;98.30
30290;DHT22;17105;55.652;37.710;2022-11-12T00:32:31;11.70;98.30
30290;DHT22;17105;55.652;37.710;2022-11-12T00:33:23;11.60;98.40
30290;DHT22;17105;55.652;37.710;2022-11-12T00:34:14;11.60;98.40
30290;DHT22;17105;55.652;37.710;2022-11-12T00:35:07;11.70;98.40
30290;DHT22;17105;55.652;37.710;2022-11-12T00:36:04;11.60;98.40
30290;DHT22;17105;55.652;37.710;2022-11-12T00:36:58;11.60;98.50
30290;DHT22;17105;55.652;37.710;2022-11-12T00:37:55;11.60;98.50
30290;DHT22;17105;55.652;37.710;2022-11-12T00:38:48;11.60;98.50
30290;DHT22;17105;55.652;37.710;2022-11-12T00:39:40;11.60;98.50
30290;DHT22;17105;55.652;37.710;2022-11-12T00:40:33;11.60;98.60
30290;DHT22;17105;55.652;37.710;2022-11-12T00:41:26;11.60;98.60
30290;DHT22;17105;55.652;37.710;2022-11-12T00:42:19;11.60;98.60
30290;DHT22;17105;55.652;37.710;2022-11-12T00:43:12;11.60;98.60
30290;DHT22;17105;55.652;37.710;2022-11-12T00:44:04;11.60;98.70
30290;DHT22;17105;55.652;37.710;2022-11-12T00:44:55;11.60;98.70
30290;DHT22;17105;55.652;37.710;2022-11-12T00:45:48;11.60;98.70
30290;DHT22;17105;55.652;37.710;2022-11-12T00:46:41;11.60;98.80
30290;DHT22;17105;55.652;37.710;2022-11-12T00:47:34;11.60;98.80
30290;DHT22;17105;55.652;37.710;2022-11-12T00:48:26;11.60;98.80
30290;DHT22;17105;55.652;37.710;2022-11-12T00:49:19;11.60;98.80
30290;DHT22;17105;55.652;37.710;2022-11-12T00:50:12;11.60;98.80
30290;DHT22;17105;55.652;37.710;2022-11-12T00:51:06;11.60;98.80
30290;DHT22;17105;55.652;37.710;2022-11-12T00:51:59;11.50;98.80
30290;DHT22;17105;55.652;37.710;2022-11-12T00:52:52;11.50;98.90
30290;DHT22;17105;55.652;37.710;2022-11-12T00:53:47;11.50;98.90
30290;DHT22;17105;55.652;37.710;2022-11-12T00:54:41;11.50;98.90
30290;DHT22;17105;55.652;37.710;2022-11-12T00:55:34;11.50;98.90
30290;DHT22;17105;55.652;37.710;2022-11-12T00:56:27;11.50;98.90
30290;DHT22;17105;55.652;37.710;2022-11-12T00:57:25;11.50;98.90
30290;DHT22;17105;55.652;37.710;2022-11-12T00:58:19;11.50;98.90
30290;DHT22;17105;55.652;37.710;2022-11-12T00:59:11;11.50;98.90
30290;DHT22;17105;55.652;37.710;2022-11-12T01:00:04;11.50;99.00
30290;DHT22;17105;55.652;37.710;2022-11-12T01:01:03;11.50;99.00
30290;DHT22;17105;55.652;37.710;2022-11-12T01:01:55;11.50;99.00
30290;DHT22;17105;55.652;37.710;2022-11-12T01:02:48;11.60;99.00
30290;DHT22;17105;55.652;37.710;2022-11-12T01:03:41;11.50;99.10
30290;DHT22;17105;55.652;37.710;2022-11-12T01:04:34;11.60;99.10
30290;DHT22;17105;55.652;37.710;2022-11-12T01:05:25;11.60;99.10
30290;DHT22;17105;55.652;37.710;2022-11-12T01:06:20;11.60;99.20
30290;DHT22;17105;55.652;37.710;2022-11-12T01:07:12;11.60;99.20
30290;DHT22;17105;55.652;37.710;2022-11-12T01:08:06;11.60;99.20
30290;DHT22;17105;55.652;37.710;2022-11-12T01:09:00;11.60;99.20
30290;DHT22;17105;55.652;37.710;2022-11-12T01:09:53;11.60;99.30
30290;DHT22;17105;55.652;37.710;2022-11-12T01:10:46;11.60;99.30
30290;DHT22;17105;55.652;37.710;2022-11-12T01:11:39;11.50;99.30
30290;DHT22;17105;55.652;37.710;2022-11-12T01:12:31;11.50;99.30
30290;DHT22;17105;55.652;37.710;2022-11-12T01:13:24;11.50;99.30
30290;DHT22;17105;55.652;37.710;2022-11-12T01:14:16;11.50;99.40
30290;DHT22;17105;55.652;37.710;2022-11-12T01:15:09;11.50;99.40
30290;DHT22;17105;55.652;37.710;2022-11-12T01:16:04;11.50;99.40
30290;DHT22;17105;55.652;37.710;2022-11-12T01:16:57;11.50;99.50
30290;DHT22;17105;55.652;37.710;2022-11-12T01:17:49;11.50;99.50
30290;DHT22;17105;55.652;37.710;2022-11-12T01:18:42;11.50;99.50
30290;DHT22;17105;55.652;37.710;2022-11-12T01:19:34;11.50;99.60
30290;DHT22;17105;55.652;37.710;2022-11-12T01:20:27;11.50;99.60
30290;DHT22;17105;55.652;37.710;2022-11-12T01:21:18;11.50;99.60
30290;DHT22;17105;55.652;37.710;2022-11-12T01:22:12;11.50;99.60
30290;DHT22;17105;55.652;37.710;2022-11-12T01:23:04;11.50;99.60
30290;DHT22;17105;55.652;37.710;2022-11-12T01:23:57;11.50;99.60
30290;DHT22;17105;55.652;37.710;2022-11-12T01:24:50;11.60;99.70
30290;DHT22;17105;55.652;37.710;2022-11-12T01:25:43;11.50;99.60
30290;DHT22;17105;55.652;37.710;2022-11-12T01:26:35;11.50;99.60
30290;DHT22;17105;55.652;37.710;2022-11-12T01:27:28;11.50;99.60
30290;DHT22;17105;55.652;37.710;2022-11-12T01:28:20;11.50;99.70
30290;DHT22;17105;55.652;37.710;2022-11-12T01:29:14;11.50;99.70
30290;DHT22;17105;55.652;37.710;2022-11-12T01:30:07;11.50;99.70
30290;DHT22;17105;55.652;37.710;2022-11-12T01:31:08;11.50;99.70
30290;DHT22;17105;55.652;37.710;2022-11-12T01:32:00;11.50;99.90
30290;DHT22;17105;55.652;37.710;2022-11-12T01:32:53;11.50;99.70
30290;DHT22;17105;55.652;37.710;2022-11-12T01:33:46;11.50;99.70
30290;DHT22;17105;55.652;37.710;2022-11-12T01:34:39;11.50;99.80
30290;DHT22;17105;55.652;37.710;2022-11-12T01:35:32;11.50;99.80
30290;DHT22;17105;55.652;37.710;2022-11-12T01:36:25;11.50;99.70
30290;DHT22;17105;55.652;37.710;2022-11-12T01:37:16;11.50;99.70
30290;DHT22;17105;55.652;37.710;2022-11-12T01:38:09;11.50;99.80
30290;DHT22;17105;55.652;37.710;2022-11-12T01:39:01;11.50;99.80
30290;DHT22;17105;55.652;37.710;2022-11-12T01:39:54;11.50;99.70
30290;DHT22;17105;55.652;37.710;2022-11-12T01:40:47;11.50;99.70
30290;DHT22;17105;55.652;37.710;2022-11-12T01:41:40;11.50;99.80
30290;DHT22;17105;55.652;37.710;2022-11-12T01:42:32;11.50;99.80
30290;DHT22;17105;55.652;37.710;2022-11-12T01:43:25;11.60;99.80
30290;DHT22;17105;55.652;37.710;2022-11-12T01:44:18;11.50;99.70
30290;DHT22;17105;55.652;37.710;2022-11-12T01:45:11;11.50;99.70
30290;DHT22;17105;55.652;37.710;2022-11-12T01:46:07;11.50;99.70
30290;DHT22;17105;55.652;37.710;2022-11-12T01:47:04;11.60;99.80
30290;DHT22;17105;55.652;37.710;2022-11-12T01:47:57;11.50;99.70
30290;DHT22;17105;55.652;37.710;2022-11-12T01:48:52;11.50;99.70
30290;DHT22;17105;55.652;37.710;2022-11-12T01:49:45;11.50;99.70
30290;DHT22;17105;55.652;37.710;2022-11-12T01:50:45;11.60;99.70
30290;DHT22;17105;55.652;37.710;2022-11-12T01:51:38;11.60;99.70
30290;DHT22;17105;55.652;37.710;2022-11-12T01:52:32;11.50;99.70
30290;DHT22;17105;55.652;37.710;2022-11-12T01:53:25;11.50;99.70
30290;DHT22;17105;55.652;37.710;2022-11-12T01:54:19;11.50;99.70
30290;DHT22;17105;55.652;37.710;2022-11-12T01:55:13;11.60;99.70
30290;DHT22;17105;55.652;37.710;2022-11-12T01:56:09;11.60;99.70
30290;DHT22;17105;55.652;37.710;2022-11-12T01:57:01;11.60;99.70
30290;DHT22;17105;55.652;37.710;2022-11-12T01:57:57;11.60;99.70
30290;DHT22;17105;55.652;37.710;2022-11-12T01:58:50;11.60;99.70
30290;DHT22;17105;55.652;37.710;2022-11-12T01:59:45;11.60;99.70
30290;DHT22;17105;55.652;37.710;2022-11-12T02:00:39;11.60;99.70
30290;DHT22;17105;55.652;37.710;2022-11-12T02:01:32;11.50;99.70
30290;DHT22;17105;55.652;37.710;2022-11-12T02:02:24;11.50;99.70
30290;DHT22;17105;55.652;37.710;2022-11-12T02:03:18;11.50;99.70
30290;DHT22;17105;55.652;37.710;2022-11-12T02:04:10;11.50;99.70
30290;DHT22;17105;55.652;37.710;2022-11-12T02:05:02;11.50;99.80
30290;DHT22;17105;55.652;37.710;2022-11-12T02:05:56;11.60;99.80
30290;DHT22;17105;55.652;37.710;2022-11-12T02:06:50;11.50;99.80
30290;DHT22;17105;55.652;37.710;2022-11-12T02:07:43;11.50;99.80
30290;DHT22;17105;55.652;37.710;2022-11-12T02:08:38;11.50;99.90
30290;DHT22;17105;55.652;37.710;2022-11-12T02:09:30;11.50;99.80
30290;DHT22;17105;55.652;37.710;2022-11-12T02:10:24;11.50;99.80
30290;DHT22;17105;55.652;37.710;2022-11-12T02:11:17;11.60;99.90
30290;DHT22;17105;55.652;37.710;2022-11-12T02:12:10;11.60;99.90
30290;DHT22;17105;55.652;37.710;2022-11-12T02:13:21;11.60;99.90
30290;DHT22;17105;55.652;37.710;2022-11-12T02:14:32;11.60;99.90
30290;DHT22;17105;55.652;37.710;2022-11-12T02:15:24;11.60;99.90
30290;DHT22;17105;55.652;37.710;2022-11-12T02:16:17;11.60;99.90
30290;DHT22;17105;55.652;37.710;2022-11-12T02:17:10;11.60;99.90
30290;DHT22;17105;55.652;37.710;2022-11-12T02:18:03;11.60;99.90
30290;DHT22;17105;55.652;37.710;2022-11-12T02:18:54;11.60;99.90
30290;DHT22;17105;55.652;37.710;2022-11-12T02:19:47;11.60;99.90
30290;DHT22;17105;55.652;37.710;2022-11-12T02:20:40;11.60;99.90
30290;DHT22;17105;55.652;37.710;2022-11-12T02:21:34;11.70;99.90
30290;DHT22;17105;55.652;37.710;2022-11-12T02:22:27;11.60;99.90
30290;DHT22;17105;55.652;37.710;2022-11-12T02:23:19;11.60;99.90
30290;DHT22;17105;55.652;37.710;2022-11-12T02:24:31;11.70;99.90
30290;DHT22;17105;55.652;37.710;2022-11-12T02:25:22;11.60;99.90
30290;DHT22;17105;55.652;37.710;2022-11-12T02:26:16;11.60;99.90
30290;DHT22;17105;55.652;37.710;2022-11-12T02:27:08;11.70;99.90
30290;DHT22;17105;55.652;37.710;2022-11-12T02:28:04;11.70;99.90
30290;DHT22;17105;55.652;37.710;2022-11-12T02:28:56;11.60;99.90
30290;DHT22;17105;55.652;37.710;2022-11-12T02:29:48;11.70;99.90
30290;DHT22;17105;55.652;37.710;2022-11-12T02:30:41;11.70;99.90
30290;DHT22;17105;55.652;37.710;2022-11-12T02:31:35;11.60;99.90
30290;DHT22;17105;55.652;37.710;2022-11-12T02:32:27;11.60;99.90
30290;DHT22;17105;55.652;37.710;2022-11-12T02:33:19;11.70;99.90
30290;DHT22;17105;55.652;37.710;2022-11-12T02:34:10;11.70;99.90
30290;DHT22;17105;55.652;37.710;2022-11-12T02:35:02;11.70;99.90
30290;DHT22;17105;55.652;37.710;2022-11-12T02:35:55;11.70;99.90
30290;DHT22;17105;55.652;37.710;2022-11-12T02:36:49;11.60;99.90
30290;DHT22;17105;55.652;37.710;2022-11-12T02:37:40;11.60;99.90
30290;DHT22;17105;55.652;37.710;2022-11-12T02:38:34;11.60;99.90
30290;DHT22;17105;55.652;37.710;2022-11-12T02:39:27;11.60;99.90
30290;DHT22;17105;55.652;37.710;2022-11-12T02:40:20;11.60;99.90
30290;DHT22;17105;55.652;37.710;2022-11-12T02:41:12;11.70;99.90
30290;DHT22;17105;55.652;37.710;2022-11-12T02:42:05;11.60;99.90
30290;DHT22;17105;55.652;37.710;2022-11-12T02:42:57;11.60;99.90
30290;DHT22;17105;55.652;37.710;2022-11-12T02:43:50;11.60;99.90
30290;DHT22;17105;55.652;37.710;2022-11-12T02:44:41;11.60;99.90
30290;DHT22;17105;55.652;37.710;2022-11-12T02:45:34;11.60;99.90
30290;DHT22;17105;55.652;37.710;2022-11-12T02:46:26;11.60;99.90
30290;DHT22;17105;55.652;37.710;2022-11-12T02:47:18;11.60;99.90
30290;DHT22;17105;55.652;37.710;2022-11-12T02:48:10;11.70;99.90
30290;DHT22;17105;55.652;37.710;2022-11-12T02:49:09;11.70;99.90
30290;DHT22;17105;55.652;37.710;2022-11-12T02:50:01;11.60;99.90
30290;DHT22;17105;55.652;37.710;2022-11-12T02:50:54;11.60;99.90
30290;DHT22;17105;55.652;37.710;2022-11-12T02:51:46;11.60;99.90
30290;DHT22;17105;55.652;37.710;2022-11-12T02:52:40;11.60;99.90
30290;DHT22;17105;55.652;37.710;2022-11-12T02:53:33;11.60;99.90
30290;DHT22;17105;55.652;37.710;2022-11-12T02:54:25;11.60;99.90
30290;DHT22;17105;55.652;37.710;2022-11-12T02:55:17;11.60;99.90
30290;DHT22;17105;55.652;37.710;2022-11-12T02:56:10;11.60;99.90
30290;DHT22;17105;55.652;37.710;2022-11-12T02:57:04;11.70;99.90
30290;DHT22;17105;55.652;37.710;2022-11-12T02:57:56;11.70;99.90
30290;DHT22;17105;55.652;37.710;2022-11-12T02:58:49;11.70;99.90
30290;DHT22;17105;55.652;37.710;2022-11-12T02:59:41;11.70;99.90
30290;DHT22;17105;55.652;37.710;2022-11-12T03:00:34;11.70;99.90
30290;DHT22;17105;55.652;37.710;2022-11-12T03:01:26;11.70;99.90
30290;DHT22;17105;55.652;37.710;2022-11-12T03:02:19;11.70;99.90
30290;DHT22;17105;55.652;37.710;2022-11-12T03:03:12;11.60;99.90
30290;DHT22;17105;55.652;37.710;2022-11-12T03:04:05;11.70;99.90
30290;DHT22;17105;55.652;37.710;2022-11-12T03:04:57;11.70;99.90
30290;DHT22;17105;55.652;37.710;2022-11-12T03:05:54;11.70;99.90
30290;DHT22;17105;55.652;37.710;2022-11-12T03:06:45;11.70;99.90
30290;DHT22;17105;55.652;37.710;2022-11-12T03:07:39;11.70;99.90
30290;DHT22;17105;55.652;37.710;2022-11-12T03:08:32;11.70;99.90
30290;DHT22;17105;55.652;37.710;2022-11-12T03:09:24;11.70;99.90
30290;DHT22;17105;55.652;37.710;2022-11-12T03:10:16;11.70;99.90
30290;DHT22;17105;55.652;37.710;2022-11-12T03:11:10;11.70;99.90
30290;DHT22;17105;55.652;37.710;2022-11-12T03:12:02;11.70;99.90
30290;DHT22;17105;55.652;37.710;2022-11-12T03:12:55;11.70;99.90
30290;DHT22;17105;55.652;37.710;2022-11-12T03:13:47;11.70;99.90
30290;DHT22;17105;55.652;37.710;2022-11-12T03:14:40;11.70;99.90
30290;DHT22;17105;55.652;37.710;2022-11-12T03:15:33;11.70;99.90
30290;DHT22;17105;55.652;37.710;2022-11-12T03:16:25;11.70;99.90
30290;DHT22;17105;55.652;37.710;2022-11-12T03:17:18;11.70;99.90
30290;DHT22;17105;55.652;37.710;2022-11-12T03:18:11;11.70;99.90
30290;DHT22;17105;55.652;37.710;2022-11-12T03:19:03;11.70;99.90
30290;DHT22;17105;55.652;37.710;2022-11-12T03:19:56;11.80;99.90
30290;DHT22;17105;55.652;37.710;2022-11-12T03:20:49;11.70;99.90
30290;DHT22;17105;55.652;37.710;2022-11-12T03:21:42;11.70;99.90
30290;DHT22;17105;55.652;37.710;2022-11-12T03:22:34;11.70;99.90
30290;DHT22;17105;55.652;37.710;2022-11-12T03:23:27;11.80;99.90
30290;DHT22;17105;55.652;37.710;2022-11-12T03:24:20;11.80;99.90
30290;DHT22;17105;55.652;37.710;2022-11-12T03:25:13;11.80;99.90
30290;DHT22;17105;55.652;37.710;2022-11-12T03:26:05;11.80;99.90
30290;DHT22;17105;55.652;37.710;2022-11-12T03:26:58;11.80;99.90
30290;DHT22;17105;55.652;37.710;2022-11-12T03:27:55;11.80;99.90
30290;DHT22;17105;55.652;37.710;2022-11-12T03:28:48;11.80;99.90
30290;DHT22;17105;55.652;37.710;2022-11-12T03:29:41;11.80;99.90
30290;DHT22;17105;55.652;37.710;2022-11-12T03:30:34;11.80;99.90
30290;DHT22;17105;55.652;37.710;2022-11-12T03:31:26;11.90;99.80
30290;DHT22;17105;55.652;37.710;2022-11-12T03:32:18;11.90;99.80
30290;DHT22;17105;55.652;37.710;2022-11-12T03:33:11;11.90;99.70
30290;DHT22;17105;55.652;37.710;2022-11-12T03:34:05;11.90;99.70
30290;DHT22;17105;55.652;37.710;2022-11-12T03:34:57;11.90;99.70
30290;DHT22;17105;55.652;37.710;2022-11-12T03:35:51;11.90;99.70
30290;DHT22;17105;55.652;37.710;2022-11-12T03:36:43;11.90;99.70
30290;DHT22;17105;55.652;37.710;2022-11-12T03:37:36;11.90;99.70
30290;DHT22;17105;55.652;37.710;2022-11-12T03:38:29;11.90;99.70
30290;DHT22;17105;55.652;37.710;2022-11-12T03:39:24;11.90;99.70
30290;DHT22;17105;55.652;37.710;2022-11-12T03:40:16;11.90;99.70
30290;DHT22;17105;55.652;37.710;2022-11-12T03:41:10;11.90;99.70
30290;DHT22;17105;55.652;37.710;2022-11-12T03:42:02;11.90;99.60
30290;DHT22;17105;55.652;37.710;2022-11-12T03:42:55;11.90;99.70
30290;DHT22;17105;55.652;37.710;2022-11-12T03:43:48;11.90;99.70
30290;DHT22;17105;55.652;37.710;2022-11-12T03:44:41;11.90;99.70
30290;DHT22;17105;55.652;37.710;2022-11-12T03:45:33;11.90;99.70
30290;DHT22;17105;55.652;37.710;2022-11-12T03:46:25;11.90;99.70
30290;DHT22;17105;55.652;37.710;2022-11-12T03:47:17;11.90;99.70
30290;DHT22;17105;55.652;37.710;2022-11-12T03:48:10;11.90;99.70
30290;DHT22;17105;55.652;37.710;2022-11-12T03:49:02;11.90;99.70
30290;DHT22;17105;55.652;37.710;2022-11-12T03:49:54;11.90;99.70
30290;DHT22;17105;55.652;37.710;2022-11-12T03:50:46;11.90;99.70
30290;DHT22;17105;55.652;37.710;2022-11-12T03:51:38;11.90;99.70
30290;DHT22;17105;55.652;37.710;2022-11-12T03:52:30;11.90;99.60
30290;DHT22;17105;55.652;37.710;2022-11-12T03:53:23;11.90;99.70
30290;DHT22;17105;55.652;37.710;2022-11-12T03:54:16;11.90;99.60
30290;DHT22;17105;55.652;37.710;2022-11-12T03:55:09;11.90;99.60
30290;DHT22;17105;55.652;37.710;2022-11-12T03:56:02;11.90;99.60
30290;DHT22;17105;55.652;37.710;2022-11-12T03:56:54;11.90;99.70
30290;DHT22;17105;55.652;37.710;2022-11-12T03:57:46;11.90;99.70
30290;DHT22;17105;55.652;37.710;2022-11-12T03:58:38;11.90;99.70
30290;DHT22;17105;55.652;37.710;2022-11-12T03:59:30;11.90;99.80
30290;DHT22;17105;55.652;37.710;2022-11-12T04:00:23;11.90;99.70
30290;DHT22;17105;55.652;37.710;2022-11-12T04:01:15;11.90;99.70
30290;DHT22;17105;55.652;37.710;2022-11-12T04:02:08;11.90;99.60
30290;DHT22;17105;55.652;37.710;2022-11-12T04:03:05;11.90;99.60
30290;DHT22;17105;55.652;37.710;2022-11-12T04:03:57;11.90;99.60
30290;DHT22;17105;55.652;37.710;2022-11-12T04:04:51;11.90;99.70
30290;DHT22;17105;55.652;37.710;2022-11-12T04:06:03;11.90;99.70
30290;DHT22;17105;55.652;37.710;2022-11-12T04:07:14;11.90;99.60
30290;DHT22;17105;55.652;37.710;2022-11-12T04:08:25;12.00;99.60
30290;DHT22;17105;55.652;37.710;2022-11-12T04:09:26;12.00;99.60
30290;DHT22;17105;55.652;37.710;2022-11-12T04:10:20;12.00;99.60
30290;DHT22;17105;55.652;37.710;2022-11-12T04:11:13;12.00;99.60
30290;DHT22;17105;55.652;37.710;2022-11-12T04:12:05;12.00;99.50
30290;DHT22;17105;55.652;37.710;2022-11-12T04:13:12;12.00;99.60
30290;DHT22;17105;55.652;37.710;2022-11-12T04:14:19;11.90;99.70
30290;DHT22;17105;55.652;37.710;2022-11-12T04:15:13;11.90;99.70
30290;DHT22;17105;55.652;37.710;2022-11-12T04:16:07;11.90;99.70
30290;DHT22;17105;55.652;37.710;2022-11-12T04:17:17;12.00;99.70
30290;DHT22;17105;55.652;37.710;2022-11-12T04:18:27;12.00;99.70
30290;DHT22;17105;55.652;37.710;2022-11-12T04:19:37;12.00;99.80
30290;DHT22;17105;55.652;37.710;2022-11-12T04:20:47;12.00;99.70
30290;DHT22;17105;55.652;37.710;2022-11-12T04:21:59;12.00;99.70
30290;DHT22;17105;55.652;37.710;2022-11-12T04:22:52;12.00;99.70
30290;DHT22;17105;55.652;37.710;2022-11-12T04:23:45;12.00;99.70
30290;DHT22;17105;55.652;37.710;2022-11-12T04:24:38;12.00;99.70
30290;DHT22;17105;55.652;37.710;2022-11-12T04:25:50;12.00;99.70
30290;DHT22;17105;55.652;37.710;2022-11-12T04:27:00;11.90;99.70
30290;DHT22;17105;55.652;37.710;2022-11-12T04:27:51;11.90;99.70
30290;DHT22;17105;55.652;37.710;2022-11-12T04:28:44;11.90;99.80
30290;DHT22;17105;55.652;37.710;2022-11-12T04:29:51;12.00;99.80
30290;DHT22;17105;55.652;37.710;2022-11-12T04:31:02;12.00;99.80
30290;DHT22;17105;55.652;37.710;2022-11-12T04:31:53;12.00;99.80
30290;DHT22;17105;55.652;37.710;2022-11-12T04:32:47;12.00;99.80
30290;DHT22;17105;55.652;37.710;2022-11-12T04:33:40;12.00;99.80
30290;DHT22;17105;55.652;37.710;2022-11-12T04:34:32;12.00;99.80
30290;DHT22;17105;55.652;37.710;2022-11-12T04:35:25;12.00;99.70
30290;DHT22;17105;55.652;37.710;2022-11-12T04:36:19;12.00;99.80
30290;DHT22;17105;55.652;37.710;2022-11-12T04:37:11;12.00;99.70
30290;DHT22;17105;55.652;37.710;2022-11-12T04:38:03;12.00;99.80
30290;DHT22;17105;55.652;37.710;2022-11-12T04:38:56;12.00;99.80
30290;DHT22;17105;55.652;37.710;2022-11-12T04:39:52;12.00;99.70
30290;DHT22;17105;55.652;37.710;2022-11-12T04:40:45;12.00;99.70
30290;DHT22;17105;55.652;37.710;2022-11-12T04:42:11;12.00;99.70
30290;DHT22;17105;55.652;37.710;2022-11-12T04:43:22;12.00;99.70
30290;DHT22;17105;55.652;37.710;2022-11-12T04:44:32;12.00;99.70
30290;DHT22;17105;55.652;37.710;2022-11-12T04:45:42;12.00;99.70
30290;DHT22;17105;55.652;37.710;2022-11-12T04:46:36;12.00;99.70
30290;DHT22;17105;55.652;37.710;2022-11-12T04:47:30;12.00;99.60
30290;DHT22;17105;55.652;37.710;2022-11-12T04:48:24;12.00;99.60
30290;DHT22;17105;55.652;37.710;2022-11-12T04:49:17;12.00;99.60
30290;DHT22;17105;55.652;37.710;2022-11-12T04:50:12;12.00;99.60
30290;DHT22;17105;55.652;37.710;2022-11-12T04:51:05;12.00;99.60
30290;DHT22;17105;55.652;37.710;2022-11-12T04:52:18;12.00;99.60
30290;DHT22;17105;55.652;37.710;2022-11-12T04:53:11;12.00;99.60
30290;DHT22;17105;55.652;37.710;2022-11-12T04:54:03;12.00;99.60
30290;DHT22;17105;55.652;37.710;2022-11-12T04:54:55;12.00;99.80
30290;DHT22;17105;55.652;37.710;2022-11-12T04:55:49;12.00;99.60
30290;DHT22;17105;55.652;37.710;2022-11-12T04:56:41;12.10;99.60
30290;DHT22;17105;55.652;37.710;2022-11-12T04:57:36;12.10;99.60
30290;DHT22;17105;55.652;37.710;2022-11-12T04:58:27;12.10;99.60
30290;DHT22;17105;55.652;37.710;2022-11-12T04:59:21;12.10;99.60
30290;DHT22;17105;55.652;37.710;2022-11-12T05:00:13;12.10;99.60
30290;DHT22;17105;55.652;37.710;2022-11-12T05:01:07;12.10;99.50
30290;DHT22;17105;55.652;37.710;2022-11-12T05:01:59;12.10;99.50
30290;DHT22;17105;55.652;37.710;2022-11-12T05:02:52;12.10;99.50
30290;DHT22;17105;55.652;37.710;2022-11-12T05:03:43;12.10;99.40
30290;DHT22;17105;55.652;37.710;2022-11-12T05:04:35;12.10;99.40
30290;DHT22;17105;55.652;37.710;2022-11-12T05:05:28;12.10;99.40
30290;DHT22;17105;55.652;37.710;2022-11-12T05:06:24;12.10;99.40
30290;DHT22;17105;55.652;37.710;2022-11-12T05:07:34;12.10;99.40
30290;DHT22;17105;55.652;37.710;2022-11-12T05:08:27;12.20;99.30
30290;DHT22;17105;55.652;37.710;2022-11-12T05:09:20;12.20;99.30
30290;DHT22;17105;55.652;37.710;2022-11-12T05:10:12;12.20;99.30
30290;DHT22;17105;55.652;37.710;2022-11-12T05:11:04;12.20;99.30
30290;DHT22;17105;55.652;37.710;2022-11-12T05:12:03;12.20;99.30
30290;DHT22;17105;55.652;37.710;2022-11-12T05:12:56;12.20;99.30
30290;DHT22;17105;55.652;37.710;2022-11-12T05:13:49;12.20;99.30
30290;DHT22;17105;55.652;37.710;2022-11-12T05:14:42;12.20;99.30
30290;DHT22;17105;55.652;37.710;2022-11-12T05:15:35;12.20;99.30
30290;DHT22;17105;55.652;37.710;2022-11-12T05:16:27;12.20;99.20
30290;DHT22;17105;55.652;37.710;2022-11-12T05:17:20;12.20;99.20
30290;DHT22;17105;55.652;37.710;2022-11-12T05:18:12;12.20;99.20
30290;DHT22;17105;55.652;37.710;2022-11-12T05:19:04;12.20;99.20
30290;DHT22;17105;55.652;37.710;2022-11-12T05:19:56;12.20;99.20
30290;DHT22;17105;55.652;37.710;2022-11-12T05:20:51;12.20;99.10
30290;DHT22;17105;55.652;37.710;2022-11-12T05:21:43;12.20;99.10
30290;DHT22;17105;55.652;37.710;2022-11-12T05:22:53;12.20;99.10
30290;DHT22;17105;55.652;37.710;2022-11-12T05:23:57;12.20;99.10
30290;DHT22;17105;55.652;37.710;2022-11-12T05:24:50;12.20;99.10
30290;DHT22;17105;55.652;37.710;2022-11-12T05:25:44;12.20;99.20
30290;DHT22;17105;55.652;37.710;2022-11-12T05:26:36;12.20;99.20
30290;DHT22;17105;55.652;37.710;2022-11-12T05:27:29;12.20;99.20
30290;DHT22;17105;55.652;37.710;2022-11-12T05:28:23;12.20;99.20
30290;DHT22;17105;55.652;37.710;2022-11-12T05:29:15;12.20;99.20
30290;DHT22;17105;55.652;37.710;2022-11-12T05:30:08;12.20;99.20
30290;DHT22;17105;55.652;37.710;2022-11-12T05:31:03;12.20;99.20
30290;DHT22;17105;55.652;37.710;2022-11-12T05:31:55;12.20;99.20
30290;DHT22;17105;55.652;37.710;2022-11-12T05:32:48;12.20;99.20
30290;DHT22;17105;55.652;37.710;2022-11-12T05:33:41;12.20;99.20
30290;DHT22;17105;55.652;37.710;2022-11-12T05:34:34;12.20;99.20
30290;DHT22;17105;55.652;37.710;2022-11-12T05:35:26;12.20;99.10
30290;DHT22;17105;55.652;37.710;2022-11-12T05:36:19;12.20;99.10
30290;DHT22;17105;55.652;37.710;2022-11-12T05:37:12;12.20;99.10